createdAt,value
2018-12-21T00:00:12.100Z,9.87
2018-12-21T00:02:42.531Z,9.43
2018-12-21T00:05:14.220Z,16.70
2018-12-21T00:07:44.500Z,9.47
2018-12-21T00:10:13.643Z,12.23
2018-12-21T00:12:42.594Z,11.13
2018-12-21T00:15:10.992Z,12.13
2018-12-21T00:17:39.534Z,12.33
2018-12-21T00:20:08.575Z,16.50
2018-12-21T00:22:37.014Z,9.27
2018-12-21T00:25:06.371Z,14.13
2018-12-21T00:27:35.424Z,17.27
2018-12-21T00:30:07.400Z,10.67
2018-12-21T00:32:41.452Z,10.10
2018-12-21T00:35:15.339Z,10.20
2018-12-21T00:37:49.680Z,17.43
2018-12-21T00:40:25.623Z,11.10
2018-12-21T00:42:57.595Z,14.23
2018-12-21T00:45:28.740Z,13.50
2018-12-21T00:47:57.150Z,11.87
2018-12-21T00:50:26.301Z,12.63
2018-12-21T00:52:55.767Z,20.73
2018-12-21T00:55:24.397Z,10.10
2018-12-21T00:57:52.856Z,13.43
2018-12-21T01:00:23.651Z,13.90
2018-12-21T01:02:51.816Z,10.60
2018-12-21T01:05:20.474Z,9.70
2018-12-21T01:07:48.802Z,15.23
2018-12-21T01:10:17.328Z,13.70
2018-12-21T01:12:47.315Z,13.90
2018-12-21T01:15:16.258Z,12.80
2018-12-21T01:17:45.306Z,11.30
2018-12-21T01:20:15.502Z,12.70
2018-12-21T01:22:45.387Z,12.20
2018-12-21T01:25:14.331Z,10.20
2018-12-21T01:27:42.750Z,10.93
2018-12-21T01:30:10.888Z,10.80
2018-12-21T01:32:40.906Z,10.53
2018-12-21T01:35:10.417Z,12.37
2018-12-21T01:37:38.931Z,15.20
2018-12-21T01:40:07.572Z,13.67
2018-12-21T01:42:36.613Z,12.20
2018-12-21T01:45:05.877Z,11.70
2018-12-21T01:47:35.449Z,14.17
2018-12-21T01:50:05.828Z,13.07
2018-12-21T01:52:34.484Z,15.13
2018-12-21T01:55:02.908Z,11.73
2018-12-21T01:57:31.749Z,14.00
2018-12-21T01:59:59.828Z,12.33
2018-12-21T02:02:28.457Z,10.20
2018-12-21T02:04:57.433Z,14.13
2018-12-21T02:07:26.366Z,10.83
2018-12-21T02:09:55.626Z,15.43
2018-12-21T02:12:24.673Z,9.47
2018-12-21T02:14:55.391Z,13.00
2018-12-21T02:17:24.649Z,11.37
2018-12-21T02:19:55.367Z,11.67
2018-12-21T02:22:24.513Z,10.37
2018-12-21T02:24:53.572Z,14.30
2018-12-21T02:27:22.095Z,9.33
2018-12-21T02:29:52.093Z,8.40
2018-12-21T02:32:20.507Z,9.97
2018-12-21T02:34:48.757Z,10.87
2018-12-21T02:37:17.108Z,9.10
2018-12-21T02:39:46.392Z,13.60
2018-12-21T02:42:15.649Z,10.87
2018-12-21T02:44:44.056Z,9.43
2018-12-21T02:47:12.491Z,7.90
2018-12-21T02:49:40.916Z,10.43
2018-12-21T02:52:09.223Z,11.07
2018-12-21T02:54:38.187Z,11.37
2018-12-21T02:57:07.620Z,7.37
2018-12-21T02:59:37.309Z,15.10
2018-12-21T03:02:05.550Z,9.90
2018-12-21T03:04:36.217Z,9.07
2018-12-21T03:07:04.444Z,10.53
2018-12-21T03:09:32.522Z,11.10
2018-12-21T03:12:04.019Z,8.83
2018-12-21T03:14:33.166Z,11.37
2018-12-21T03:17:02.840Z,17.87
2018-12-21T03:19:31.586Z,12.40
2018-12-21T03:22:00.992Z,10.23
2018-12-21T03:24:29.329Z,7.93
2018-12-21T03:26:59.554Z,6.57
2018-12-21T03:29:28.080Z,12.60
2018-12-21T03:31:57.151Z,7.07
2018-12-21T03:34:25.973Z,10.20
2018-12-21T03:36:54.797Z,10.30
2018-12-21T03:39:23.410Z,7.23
2018-12-21T03:41:52.587Z,12.17
2018-12-21T03:44:21.427Z,13.37
2018-12-21T03:46:50.996Z,8.77
2018-12-21T03:49:19.387Z,6.17
2018-12-21T03:51:48.048Z,12.23
2018-12-21T03:54:18.253Z,10.23
2018-12-21T03:56:46.573Z,6.97
2018-12-21T03:59:15.603Z,10.43
2018-12-21T04:01:44.868Z,7.40
2018-12-21T04:04:13.496Z,5.60
2018-12-21T04:06:42.232Z,8.10
2018-12-21T04:09:10.694Z,8.70
2018-12-21T04:11:40.317Z,15.00
2018-12-21T04:14:09.791Z,6.53
2018-12-21T04:16:38.856Z,18.00
2018-12-21T04:19:07.789Z,6.33
2018-12-21T04:21:36.204Z,7.90
2018-12-21T04:24:04.843Z,7.97
2018-12-21T04:26:33.353Z,11.83
2018-12-21T04:29:02.224Z,7.20
2018-12-21T04:31:32.582Z,10.50
2018-12-21T04:34:01.129Z,6.60
2018-12-21T04:36:29.633Z,11.33
2018-12-21T04:38:57.868Z,9.77
2018-12-21T04:41:26.603Z,9.33
2018-12-21T04:43:56.396Z,7.87
2018-12-21T04:46:24.645Z,7.03
2018-12-21T04:48:53.641Z,6.87
2018-12-21T04:51:22.274Z,6.60
2018-12-21T04:53:50.693Z,8.67
2018-12-21T04:56:20.576Z,7.93
2018-12-21T04:58:48.773Z,8.93
2018-12-21T05:01:17.404Z,7.63
2018-12-21T05:03:46.355Z,7.47
2018-12-21T05:06:17.394Z,9.83
2018-12-21T05:08:47.286Z,7.70
2018-12-21T05:11:17.787Z,8.03
2018-12-21T05:13:46.319Z,7.03
2018-12-21T05:16:15.057Z,7.37
2018-12-21T05:18:43.782Z,9.03
2018-12-21T05:21:12.933Z,5.80
2018-12-21T05:23:41.233Z,8.50
2018-12-21T05:26:09.987Z,9.53
2018-12-21T05:28:38.287Z,8.80
2018-12-21T05:31:06.622Z,7.10
2018-12-21T05:33:34.847Z,8.13
2018-12-21T05:36:05.124Z,7.33
2018-12-21T05:38:34.452Z,5.07
2018-12-21T05:41:03.236Z,14.40
2018-12-21T05:43:33.360Z,7.73
2018-12-21T05:46:02.417Z,8.07
2018-12-21T05:48:30.597Z,6.13
2018-12-21T05:50:59.204Z,6.30
2018-12-21T05:53:27.604Z,5.80
2018-12-21T05:55:56.144Z,8.27
2018-12-21T05:58:25.205Z,8.23
2018-12-21T06:00:53.730Z,7.97
2018-12-21T06:03:21.982Z,6.53
2018-12-21T06:05:50.468Z,5.27
2018-12-21T06:08:18.592Z,11.37
2018-12-21T06:10:47.832Z,9.60
2018-12-21T06:13:16.776Z,5.07
2018-12-21T06:15:46.242Z,6.80
2018-12-21T06:18:14.757Z,8.93
2018-12-21T06:20:43.193Z,5.70
2018-12-21T06:23:12.028Z,5.00
2018-12-21T06:25:40.540Z,6.30
2018-12-21T06:28:09.081Z,6.83
2018-12-21T06:30:37.702Z,7.70
2018-12-21T06:33:07.286Z,7.00
2018-12-21T06:35:35.701Z,5.67
2018-12-21T06:38:04.742Z,4.60
2018-12-21T06:40:32.933Z,5.97
2018-12-21T06:43:01.963Z,3.57
2018-12-21T06:45:32.589Z,5.07
2018-12-21T06:48:02.392Z,2.43
2018-12-21T06:50:31.440Z,5.87
2018-12-21T06:53:00.079Z,4.27
2018-12-21T06:55:28.502Z,3.10
2018-12-21T06:57:57.339Z,3.03
2018-12-21T07:00:26.493Z,3.67
2018-12-21T07:02:55.437Z,2.87
2018-12-21T07:05:24.380Z,3.87
2018-12-21T07:07:53.356Z,2.40
2018-12-21T07:10:22.058Z,2.73
2018-12-21T07:12:51.940Z,2.50
2018-12-21T07:15:20.542Z,4.23
2018-12-21T07:17:49.715Z,2.73
2018-12-21T07:20:18.247Z,3.80
2018-12-21T07:22:47.136Z,2.37
2018-12-21T07:25:16.240Z,2.40
2018-12-21T07:27:45.286Z,2.77
2018-12-21T07:30:13.917Z,3.83
2018-12-21T07:32:42.963Z,3.10
2018-12-21T07:35:11.819Z,3.60
2018-12-21T07:37:40.328Z,2.73
2018-12-21T07:40:09.454Z,3.27
2018-12-21T07:42:38.528Z,4.00
2018-12-21T07:45:08.925Z,2.87
2018-12-21T07:47:37.557Z,2.37
2018-12-21T07:50:06.541Z,3.00
2018-12-21T07:52:35.023Z,3.80
2018-12-21T07:55:05.543Z,4.43
2018-12-21T07:57:35.297Z,2.77
2018-12-21T08:00:05.356Z,2.93
2018-12-21T08:02:33.940Z,2.27
2018-12-21T08:05:02.560Z,4.93
2018-12-21T08:07:32.026Z,7.13
2018-12-21T08:10:01.606Z,2.73
2018-12-21T08:12:30.223Z,5.70
2018-12-21T08:15:01.134Z,3.20
2018-12-21T08:17:33.553Z,3.03
2018-12-21T08:20:02.079Z,3.03
2018-12-21T08:22:30.501Z,2.40
2018-12-21T08:24:59.137Z,3.20
2018-12-21T08:27:27.683Z,2.60
2018-12-21T08:29:56.065Z,2.37
2018-12-21T08:32:24.498Z,3.50
2018-12-21T08:34:53.023Z,3.27
2018-12-21T08:37:21.050Z,2.73
2018-12-21T08:39:50.701Z,3.30
2018-12-21T08:42:20.193Z,2.57
2018-12-21T08:44:49.528Z,3.07
2018-12-21T08:47:18.576Z,2.27
2018-12-21T08:49:47.089Z,3.57
2018-12-21T08:52:15.418Z,4.13
2018-12-21T08:54:43.606Z,2.57
2018-12-21T08:57:11.737Z,4.60
2018-12-21T08:59:40.368Z,3.50
2018-12-21T09:02:08.789Z,2.37
2018-12-21T09:04:36.953Z,3.10
2018-12-21T09:07:05.592Z,3.23
2018-12-21T09:09:34.470Z,3.60
2018-12-21T09:12:03.521Z,3.70
2018-12-21T09:14:32.568Z,2.67
2018-12-21T09:17:00.665Z,2.10
2018-12-21T09:19:30.348Z,3.33
2018-12-21T09:21:59.485Z,2.90
2018-12-21T09:24:28.338Z,2.20
2018-12-21T09:26:56.768Z,1.70
2018-12-21T09:29:26.874Z,2.20
2018-12-21T09:31:55.378Z,3.80
2018-12-21T09:34:24.732Z,3.53
2018-12-21T09:36:53.264Z,3.27
2018-12-21T09:39:21.895Z,2.73
2018-12-21T09:41:50.064Z,1.80
2018-12-21T09:44:19.573Z,2.00
2018-12-21T09:46:48.098Z,2.30
2018-12-21T09:49:16.573Z,2.00
2018-12-21T09:51:45.431Z,2.63
2018-12-21T09:54:14.316Z,3.67
2018-12-21T09:56:42.726Z,2.50
2018-12-21T09:59:10.789Z,3.10
2018-12-21T10:01:38.882Z,4.33
2018-12-21T10:04:08.830Z,4.03
2018-12-21T10:06:37.244Z,3.50
2018-12-21T10:09:07.428Z,5.87
2018-12-21T10:11:37.218Z,2.90
2018-12-21T10:14:05.848Z,4.73
2018-12-21T10:16:35.192Z,3.73
2018-12-21T10:19:03.841Z,3.20
2018-12-21T10:21:33.840Z,4.93
2018-12-21T10:24:02.242Z,16.70
2018-12-21T10:26:30.887Z,3.90
2018-12-21T10:28:59.983Z,4.63
2018-12-21T10:31:28.444Z,4.17
2018-12-21T10:33:58.762Z,5.90
2018-12-21T10:36:27.008Z,4.63
2018-12-21T10:38:56.136Z,4.07
2018-12-21T10:41:26.451Z,4.90
2018-12-21T10:43:56.404Z,6.07
2018-12-21T10:46:27.233Z,5.27
2018-12-21T10:48:57.430Z,6.67
2018-12-21T10:51:26.271Z,6.67
2018-12-21T10:53:54.775Z,9.87
2018-12-21T10:56:22.855Z,10.20
2018-12-21T10:58:51.216Z,12.90
2018-12-21T11:01:20.363Z,16.27
2018-12-21T11:03:48.619Z,12.40
2018-12-21T11:06:17.213Z,19.10
2018-12-21T11:08:45.608Z,10.90
2018-12-21T11:11:13.842Z,9.27
2018-12-21T11:13:43.437Z,5.93
2018-12-21T11:16:11.952Z,4.27
2018-12-21T11:18:42.345Z,5.10
2018-12-21T11:21:11.291Z,3.70
2018-12-21T11:23:41.110Z,3.27
2018-12-21T11:26:10.569Z,3.30
2018-12-21T11:28:38.804Z,3.70
2018-12-21T11:31:08.000Z,4.17
2018-12-21T11:33:36.937Z,2.57
2018-12-21T11:36:06.028Z,2.40
2018-12-21T11:38:34.108Z,2.27
2018-12-21T11:41:02.720Z,3.97
2018-12-21T11:43:30.793Z,3.17
2018-12-21T11:45:59.040Z,3.47
2018-12-21T11:48:28.094Z,2.53
2018-12-21T11:50:57.670Z,2.10
2018-12-21T11:53:26.197Z,2.80
2018-12-21T11:55:54.616Z,3.20
2018-12-21T11:58:23.665Z,2.60
2018-12-21T12:00:51.776Z,2.40
2018-12-21T12:03:20.356Z,3.67
2018-12-21T12:05:51.225Z,3.13
2018-12-21T12:08:19.740Z,2.40
2018-12-21T12:10:49.008Z,2.57
2018-12-21T12:13:18.707Z,3.90
2018-12-21T12:15:47.730Z,2.07
2018-12-21T12:18:15.926Z,2.43
2018-12-21T12:20:45.096Z,2.17
2018-12-21T12:23:13.412Z,1.80
2018-12-21T12:25:41.537Z,1.90
2018-12-21T12:28:10.572Z,3.67
2018-12-21T12:30:39.357Z,2.53
2018-12-21T12:33:07.915Z,2.47
2018-12-21T12:35:36.980Z,3.50
2018-12-21T12:38:05.743Z,2.00
2018-12-21T12:40:34.134Z,2.97
2018-12-21T12:43:03.179Z,3.77
2018-12-21T12:45:31.792Z,2.77
2018-12-21T12:48:00.444Z,2.63
2018-12-21T12:50:28.688Z,1.77
2018-12-21T12:52:58.020Z,2.13
2018-12-21T12:55:26.377Z,1.83
2018-12-21T12:57:55.271Z,1.80
2018-12-21T13:00:24.846Z,2.50
2018-12-21T13:02:53.802Z,1.53
2018-12-21T13:05:22.942Z,1.97
2018-12-21T13:07:51.262Z,1.43
2018-12-21T13:10:19.760Z,1.63
2018-12-21T13:12:50.508Z,1.93
2018-12-21T13:15:19.547Z,9.03
2018-12-21T13:17:48.707Z,1.90
2018-12-21T13:20:17.335Z,1.83
2018-12-21T13:22:45.734Z,1.30
2018-12-21T13:25:14.361Z,1.80
2018-12-21T13:27:42.806Z,2.47
2018-12-21T13:30:13.585Z,2.13
2018-12-21T13:32:42.679Z,1.50
2018-12-21T13:35:12.148Z,2.20
2018-12-21T13:37:41.333Z,2.33
2018-12-21T13:40:10.134Z,2.63
2018-12-21T13:42:38.663Z,3.40
2018-12-21T13:45:08.444Z,3.30
2018-12-21T13:47:36.636Z,3.53
2018-12-21T13:50:06.639Z,3.07
2018-12-21T13:52:34.955Z,2.63
2018-12-21T13:55:04.735Z,3.93
2018-12-21T13:57:35.258Z,6.03
2018-12-21T14:00:05.654Z,6.17
2018-12-21T14:02:34.481Z,3.40
2018-12-21T14:05:04.809Z,6.20
2018-12-21T14:07:33.414Z,7.37
2018-12-21T14:10:01.856Z,5.03
2018-12-21T14:12:31.516Z,4.87
2018-12-21T14:15:00.564Z,6.87
2018-12-21T14:17:29.090Z,6.53
2018-12-21T14:19:58.128Z,6.77
2018-12-21T14:22:27.789Z,7.63
2018-12-21T14:24:56.288Z,11.97
2018-12-21T14:27:25.984Z,8.93
2018-12-21T14:29:54.747Z,8.87
2018-12-21T14:32:24.212Z,11.00
2018-12-21T14:34:52.739Z,11.23
2018-12-21T14:37:21.568Z,15.13
2018-12-21T14:39:50.201Z,13.60
2018-12-21T14:42:18.731Z,9.93
2018-12-21T14:44:47.155Z,17.93
2018-12-21T14:47:15.576Z,13.10
2018-12-21T14:49:46.190Z,18.07
2018-12-21T14:52:15.656Z,15.93
2018-12-21T14:54:44.397Z,18.53
2018-12-21T14:57:12.893Z,15.40
2018-12-21T14:59:41.343Z,20.73
2018-12-21T15:02:10.273Z,19.33
2018-12-21T15:04:38.909Z,14.70
2018-12-21T15:07:09.353Z,13.13
2018-12-21T15:09:39.305Z,18.70
2018-12-21T15:12:08.142Z,17.07
2018-12-21T15:14:38.665Z,19.53
2018-12-21T15:17:07.809Z,17.97
2018-12-21T15:19:36.090Z,15.30
2018-12-21T15:22:06.422Z,17.13
2018-12-21T15:24:35.169Z,24.63
2018-12-21T15:27:05.041Z,20.43
2018-12-21T15:29:34.187Z,17.80
2018-12-21T15:32:03.767Z,25.00
2018-12-21T15:34:32.395Z,22.30
2018-12-21T15:37:02.688Z,28.40
2018-12-21T15:39:30.956Z,23.90
2018-12-21T15:42:00.059Z,25.03
2018-12-21T15:44:28.376Z,27.47
2018-12-21T15:46:57.528Z,20.63
2018-12-21T15:49:26.678Z,26.33
2018-12-21T15:51:55.300Z,27.93
2018-12-21T15:54:23.621Z,25.67
2018-12-21T15:56:52.467Z,20.30
2018-12-21T15:59:22.246Z,26.17
2018-12-21T16:01:50.929Z,25.67
2018-12-21T16:04:20.452Z,25.97
2018-12-21T16:06:50.447Z,17.60
2018-12-21T16:09:18.860Z,30.10
2018-12-21T16:11:47.274Z,29.70
2018-12-21T16:14:15.595Z,34.37
2018-12-21T16:16:44.721Z,30.10
2018-12-21T16:19:13.904Z,33.43
2018-12-21T16:21:43.679Z,25.70
2018-12-21T16:24:12.306Z,37.80
2018-12-21T16:26:41.811Z,28.10
2018-12-21T16:29:11.220Z,32.47
2018-12-21T16:31:40.181Z,25.40
2018-12-21T16:34:08.753Z,36.10
2018-12-21T16:36:36.960Z,25.47
2018-12-21T16:39:06.487Z,29.97
2018-12-21T16:41:35.226Z,31.87
2018-12-21T16:44:03.853Z,37.47
2018-12-21T16:46:32.599Z,33.57
2018-12-21T16:49:01.090Z,52.53
2018-12-21T16:51:29.729Z,38.63
2018-12-21T16:53:58.581Z,37.57
2018-12-21T16:56:27.288Z,34.47
2018-12-21T16:58:55.946Z,25.87
2018-12-21T17:01:25.088Z,38.63
2018-12-21T17:03:54.034Z,30.73
2018-12-21T17:06:22.991Z,28.97
2018-12-21T17:08:52.967Z,35.23
2018-12-21T17:11:21.412Z,27.80
2018-12-21T17:13:50.444Z,35.57
2018-12-21T17:16:19.594Z,38.57
2018-12-21T17:18:47.693Z,32.53
2018-12-21T17:21:17.058Z,29.13
2018-12-21T17:23:45.593Z,28.70
2018-12-21T17:26:21.258Z,34.03
2018-12-21T17:28:44.522Z,27.93
2018-12-21T17:31:13.485Z,37.67
2018-12-21T17:33:42.519Z,30.20
2018-12-21T17:36:11.861Z,26.50
2018-12-21T17:38:39.979Z,29.60
2018-12-21T17:41:09.237Z,33.87
2018-12-21T17:43:37.663Z,26.30
2018-12-21T17:46:06.811Z,38.23
2018-12-21T17:48:35.338Z,32.07
2018-12-21T17:51:05.093Z,31.50
2018-12-21T17:53:34.158Z,28.93
2018-12-21T17:56:02.617Z,31.77
2018-12-21T17:58:31.529Z,30.33
2018-12-21T18:01:01.308Z,19.80
2018-12-21T18:03:30.250Z,19.30
2018-12-21T18:05:59.584Z,29.27
2018-12-21T18:08:28.034Z,27.17
2018-12-21T18:10:56.723Z,23.50
2018-12-21T18:13:25.716Z,28.40
2018-12-21T18:15:54.969Z,31.30
2018-12-21T18:18:25.345Z,32.07
2018-12-21T18:20:54.525Z,26.17
2018-12-21T18:23:24.403Z,27.47
2018-12-21T18:25:54.705Z,26.67
2018-12-21T18:28:24.909Z,30.53
2018-12-21T18:30:53.734Z,28.77
2018-12-21T18:33:22.578Z,26.13
2018-12-21T18:35:51.632Z,29.13
2018-12-21T18:38:20.571Z,25.47
2018-12-21T18:40:49.211Z,27.07
2018-12-21T18:43:17.809Z,29.10
2018-12-21T18:45:46.600Z,31.13
2018-12-21T18:48:15.095Z,38.20
2018-12-21T18:50:43.809Z,33.10
2018-12-21T18:53:12.112Z,29.53
2018-12-21T18:55:40.882Z,26.20
2018-12-21T18:58:09.941Z,28.20
2018-12-21T19:00:38.400Z,25.33
2018-12-21T19:03:06.716Z,27.53
2018-12-21T19:05:35.516Z,31.93
2018-12-21T19:08:03.615Z,30.60
2018-12-21T19:10:32.652Z,30.77
2018-12-21T19:13:01.716Z,32.93
2018-12-21T19:15:30.757Z,32.53
2018-12-21T19:17:59.394Z,31.63
2018-12-21T19:20:28.437Z,31.50
2018-12-21T19:22:58.734Z,28.80
2018-12-21T19:25:27.801Z,36.83
2018-12-21T19:27:56.309Z,28.87
2018-12-21T19:30:25.203Z,28.77
2018-12-21T19:32:53.568Z,26.97
2018-12-21T19:35:27.447Z,28.73
2018-12-21T19:37:53.656Z,25.97
2018-12-21T19:40:22.071Z,24.93
2018-12-21T19:42:50.607Z,29.30
2018-12-21T19:45:18.748Z,31.93
2018-12-21T19:47:49.319Z,27.70
2018-12-21T19:50:17.576Z,29.27
2018-12-21T19:52:46.161Z,30.93
2018-12-21T19:55:17.116Z,30.20
2018-12-21T19:57:47.704Z,37.03
2018-12-21T20:00:16.216Z,24.97
2018-12-21T20:02:44.649Z,25.07
2018-12-21T20:05:13.702Z,28.30
2018-12-21T20:07:42.534Z,31.37
2018-12-21T20:10:11.564Z,26.70
2018-12-21T20:12:40.527Z,24.00
2018-12-21T20:15:10.412Z,24.23
2018-12-21T20:17:40.004Z,27.30
2018-12-21T20:20:11.118Z,28.70
2018-12-21T20:22:39.540Z,28.93
2018-12-21T20:25:09.523Z,29.53
2018-12-21T20:27:38.860Z,29.77
2018-12-21T20:30:09.523Z,28.17
2018-12-21T20:32:40.540Z,29.40
2018-12-21T20:35:09.585Z,28.77
2018-12-21T20:37:39.890Z,25.97
2018-12-21T20:40:10.396Z,29.83
2018-12-21T20:42:38.806Z,27.77
2018-12-21T20:45:08.811Z,33.27
2018-12-21T20:47:39.078Z,33.97
2018-12-21T20:50:10.040Z,25.80
2018-12-21T20:52:38.544Z,33.33
2018-12-21T20:55:09.591Z,26.23
2018-12-21T20:57:39.671Z,31.80
2018-12-21T21:00:13.643Z,32.77
2018-12-21T21:02:43.420Z,32.57
2018-12-21T21:05:12.466Z,33.10
2018-12-21T21:07:40.751Z,29.00
2018-12-21T21:10:10.979Z,31.23
2018-12-21T21:12:40.027Z,34.23
2018-12-21T21:15:10.121Z,29.40
2018-12-21T21:17:39.388Z,32.80
2018-12-21T21:20:11.744Z,39.40
2018-12-21T21:22:40.403Z,32.77
2018-12-21T21:25:08.903Z,41.40
2018-12-21T21:27:37.818Z,43.63
2018-12-21T21:30:10.986Z,37.27
2018-12-21T21:32:39.753Z,36.00
2018-12-21T21:35:08.250Z,40.13
2018-12-21T21:37:36.771Z,38.20
2018-12-21T21:40:10.000Z,40.87
2018-12-21T21:42:39.560Z,30.07
2018-12-21T21:45:09.555Z,36.27
2018-12-21T21:47:38.185Z,34.37
2018-12-21T21:50:09.531Z,38.17
2018-12-21T21:52:38.572Z,40.83
2018-12-21T21:55:07.802Z,31.20
2018-12-21T21:57:39.562Z,31.83
2018-12-21T22:00:08.763Z,36.93
2018-12-21T22:02:37.793Z,34.77
2018-12-21T22:05:06.172Z,39.40
2018-12-21T22:07:34.855Z,34.57
2018-12-21T22:10:04.733Z,36.13
2018-12-21T22:12:33.157Z,31.50
2018-12-21T22:15:01.661Z,48.23
2018-12-21T22:17:31.875Z,38.60
2018-12-21T22:20:00.718Z,33.67
2018-12-21T22:22:29.661Z,43.90
2018-12-21T22:24:58.706Z,39.67
2018-12-21T22:27:26.802Z,28.27
2018-12-21T22:29:56.074Z,40.10
2018-12-21T22:32:25.649Z,32.87
2018-12-21T22:34:54.166Z,39.30
2018-12-21T22:37:25.210Z,31.37
2018-12-21T22:39:56.761Z,35.17
2018-12-21T22:42:26.784Z,23.77
2018-12-21T22:44:55.788Z,38.10
2018-12-21T22:47:26.665Z,33.77
2018-12-21T22:49:55.693Z,38.50
2018-12-21T22:52:24.707Z,33.93
2018-12-21T22:54:53.029Z,35.50
2018-12-21T22:57:24.034Z,39.10
2018-12-21T22:59:53.011Z,39.67
2018-12-21T23:02:21.972Z,40.00
2018-12-21T23:04:50.364Z,42.23
2018-12-21T23:07:18.785Z,39.23
2018-12-21T23:09:46.817Z,34.77
2018-12-21T23:12:16.045Z,37.73
2018-12-21T23:14:44.466Z,32.93
2018-12-21T23:17:12.998Z,40.37
2018-12-21T23:19:41.813Z,35.93
2018-12-21T23:22:11.841Z,47.50
2018-12-21T23:24:40.866Z,39.37
2018-12-21T23:27:09.810Z,41.37
2018-12-21T23:29:38.648Z,35.23
2018-12-21T23:32:06.856Z,45.37
2018-12-21T23:34:35.481Z,37.43
2018-12-21T23:37:04.637Z,47.87
2018-12-21T23:39:33.506Z,34.60
2018-12-21T23:42:02.800Z,41.37
2018-12-21T23:44:31.892Z,43.20
2018-12-21T23:47:00.416Z,41.30
2018-12-21T23:49:29.041Z,40.17
2018-12-21T23:51:58.523Z,39.97
2018-12-21T23:54:27.033Z,48.23
2018-12-21T23:56:55.462Z,42.30
2018-12-21T23:59:23.947Z,39.43
